createdAt,value
2023-03-02T00:02:13.384Z,101210.81
2023-03-02T00:05:15.769Z,101207.63
2023-03-02T00:08:19.355Z,101208.91
2023-03-02T00:11:21.857Z,101210.25
2023-03-02T00:14:23.852Z,101212.41
2023-03-02T00:17:28.621Z,101209.25
2023-03-02T00:20:30.969Z,101208.09
2023-03-02T00:23:33.406Z,101211.63
2023-03-02T00:26:36.620Z,101198.81
2023-03-02T00:29:38.871Z,101205.56
2023-03-02T00:32:41.836Z,101202.81
2023-03-02T00:35:43.881Z,101191.13
2023-03-02T00:38:45.889Z,101189.22
2023-03-02T00:41:48.812Z,101182.72
2023-03-02T00:44:52.561Z,101191.66
2023-03-02T00:47:55.462Z,101178.53
2023-03-02T00:51:01.270Z,101175.00
2023-03-02T00:54:03.451Z,101181.84
2023-03-02T00:57:05.500Z,101177.47
2023-03-02T01:00:08.505Z,101176.31
2023-03-02T01:03:13.857Z,101168.81
2023-03-02T01:06:21.185Z,101161.47
2023-03-02T01:09:23.737Z,101157.31
2023-03-02T01:12:26.446Z,101157.38
2023-03-02T01:15:28.462Z,101142.75
2023-03-02T01:18:30.508Z,101131.53
2023-03-02T01:21:32.822Z,101143.91
2023-03-02T01:24:35.331Z,101132.31
2023-03-02T01:27:37.315Z,101113.78
2023-03-02T01:30:40.172Z,101125.81
2023-03-02T01:33:42.372Z,101121.59
2023-03-02T01:36:47.615Z,101113.09
2023-03-02T01:39:51.045Z,101112.72
2023-03-02T01:43:02.448Z,101110.88
2023-03-02T01:46:25.719Z,101119.28
2023-03-02T01:49:28.677Z,101114.69
2023-03-02T01:52:35.237Z,101105.19
2023-03-02T01:55:39.795Z,101103.75
2023-03-02T01:58:42.297Z,101092.88
2023-03-02T02:01:52.462Z,101085.72
2023-03-02T02:04:56.632Z,101089.06
2023-03-02T02:07:58.788Z,101087.91
2023-03-02T02:11:01.849Z,101093.75
2023-03-02T02:14:04.063Z,101086.31
2023-03-02T02:17:06.282Z,101092.81
2023-03-02T02:20:24.239Z,101087.03
2023-03-02T02:23:48.153Z,101093.34
2023-03-02T02:26:53.361Z,101087.63
2023-03-02T02:30:00.524Z,101089.44
2023-03-02T02:33:05.435Z,101085.28
2023-03-02T02:36:13.424Z,101074.59
2023-03-02T02:39:22.457Z,101089.31
2023-03-02T02:42:38.713Z,101086.94
2023-03-02T02:45:41.220Z,101072.44
2023-03-02T02:48:44.317Z,101079.38
2023-03-02T02:51:46.510Z,101070.97
2023-03-02T02:54:51.757Z,101084.25
2023-03-02T02:57:58.186Z,101070.59
2023-03-02T03:01:02.103Z,101070.34
2023-03-02T03:04:06.314Z,101063.31
2023-03-02T03:07:13.446Z,101069.94
2023-03-02T03:10:23.307Z,101059.78
2023-03-02T03:13:25.571Z,101056.19
2023-03-02T03:16:30.695Z,101067.28
2023-03-02T03:19:33.856Z,101057.31
2023-03-02T03:22:38.180Z,101051.22
2023-03-02T03:25:41.782Z,101065.41
2023-03-02T03:28:44.405Z,101068.00
2023-03-02T03:31:46.669Z,101074.50
2023-03-02T03:34:49.620Z,101078.44
2023-03-02T03:37:52.496Z,101079.69
2023-03-02T03:40:55.266Z,101078.16
2023-03-02T03:43:57.921Z,101089.19
2023-03-02T03:47:00.490Z,101085.28
2023-03-02T03:50:03.878Z,101095.63
2023-03-02T03:53:08.703Z,101090.25
2023-03-02T03:56:11.251Z,101094.47
2023-03-02T03:59:18.210Z,101098.72
2023-03-02T04:02:21.280Z,101088.34
2023-03-02T04:05:23.648Z,101101.72
2023-03-02T04:08:26.532Z,101099.13
2023-03-02T04:11:28.774Z,101100.16
2023-03-02T04:14:31.646Z,101102.47
2023-03-02T04:17:34.104Z,101092.94
2023-03-02T04:20:37.590Z,101086.41
2023-03-02T04:23:40.245Z,101087.44
2023-03-02T04:26:44.886Z,101088.81
2023-03-02T04:29:47.422Z,101088.69
2023-03-02T04:32:49.889Z,101085.38
2023-03-02T04:35:52.026Z,101087.53
2023-03-02T04:38:55.024Z,101082.91
2023-03-02T04:41:59.838Z,101078.44
2023-03-02T04:45:02.293Z,101078.53
2023-03-02T04:48:06.046Z,101069.56
2023-03-02T04:51:24.290Z,101075.97
2023-03-02T04:54:27.037Z,101073.91
2023-03-02T04:57:30.360Z,101068.81
2023-03-02T05:00:34.315Z,101078.66
2023-03-02T05:03:36.406Z,101081.13
2023-03-02T05:06:38.618Z,101079.69
2023-03-02T05:09:41.076Z,101074.94
2023-03-02T05:13:02.452Z,101071.09
2023-03-02T05:16:05.529Z,101075.53
2023-03-02T05:19:10.396Z,101074.50
2023-03-02T05:22:12.460Z,101082.38
2023-03-02T05:25:14.715Z,101074.59
2023-03-02T05:28:18.001Z,101079.38
2023-03-02T05:31:24.311Z,101088.06
2023-03-02T05:34:26.439Z,101081.88
2023-03-02T05:37:28.443Z,101091.41
2023-03-02T05:40:31.371Z,101090.13
2023-03-02T05:43:34.034Z,101094.06
2023-03-02T05:46:38.771Z,101098.13
2023-03-02T05:49:42.179Z,101100.38
2023-03-02T05:52:45.745Z,101101.63
2023-03-02T05:55:48.241Z,101097.50
2023-03-02T05:58:50.276Z,101108.69
2023-03-02T06:01:58.818Z,101100.81
2023-03-02T06:05:01.605Z,101106.28
2023-03-02T06:08:04.802Z,101110.63
2023-03-02T06:11:08.039Z,101120.34
2023-03-02T06:14:10.141Z,101111.50
2023-03-02T06:17:12.417Z,101113.78
2023-03-02T06:20:15.489Z,101111.97
2023-03-02T06:23:17.629Z,101117.28
2023-03-02T06:26:19.729Z,101119.13
2023-03-02T06:29:23.372Z,101113.00
2023-03-02T06:32:27.351Z,101126.84
2023-03-02T06:35:29.807Z,101126.28
2023-03-02T06:38:32.248Z,101132.56
2023-03-02T06:41:34.719Z,101129.34
2023-03-02T06:44:36.991Z,101135.69
2023-03-02T06:47:39.449Z,101130.84
2023-03-02T06:50:42.489Z,101140.19
2023-03-02T06:53:49.082Z,101141.06
2023-03-02T06:56:51.457Z,101147.59
2023-03-02T06:59:55.348Z,101139.47
2023-03-02T07:03:15.002Z,101147.34
2023-03-02T07:06:18.868Z,101146.88
2023-03-02T07:09:22.560Z,101145.69
2023-03-02T07:12:28.167Z,101133.81
2023-03-02T07:15:33.828Z,101140.19
2023-03-02T07:18:41.320Z,101140.97
2023-03-02T07:21:43.864Z,101131.94
2023-03-02T07:24:50.085Z,101098.53
2023-03-02T07:27:52.851Z,101119.28
2023-03-02T07:30:59.870Z,101141.47
2023-03-02T07:34:05.459Z,101130.88
2023-03-02T07:37:08.865Z,101135.16
2023-03-02T07:40:13.118Z,101101.06
2023-03-02T07:43:21.029Z,101112.94
2023-03-02T07:46:41.875Z,101096.06
2023-03-02T07:49:59.122Z,101102.06
2023-03-02T07:53:03.210Z,101120.94
2023-03-02T07:56:10.287Z,101090.03
2023-03-02T07:59:17.437Z,101123.00
2023-03-02T08:02:22.604Z,101124.22
2023-03-02T08:05:54.810Z,101125.16
2023-03-02T08:09:16.822Z,101093.94
2023-03-02T08:13:36.188Z,101127.53
2023-03-02T08:16:51.994Z,101112.75
2023-03-02T08:19:57.022Z,101110.00
2023-03-02T08:23:05.814Z,101131.75
2023-03-02T08:26:11.021Z,101126.91
2023-03-02T08:29:15.224Z,101121.06
2023-03-02T08:32:21.917Z,101105.22
2023-03-02T08:35:25.444Z,101119.16
2023-03-02T08:38:30.582Z,101101.25
2023-03-02T08:41:35.617Z,101116.53
2023-03-02T08:44:39.762Z,101106.25
2023-03-02T08:47:42.479Z,101110.38
2023-03-02T08:50:57.293Z,101101.59
2023-03-02T08:54:00.882Z,101091.41
2023-03-02T08:57:11.904Z,101079.50
2023-03-02T09:00:18.051Z,101101.09
2023-03-02T09:03:29.240Z,101096.25
2023-03-02T09:06:39.413Z,101083.88
2023-03-02T09:09:43.255Z,101085.47
2023-03-02T09:12:54.341Z,101075.47
2023-03-02T09:16:22.179Z,101090.75
2023-03-02T09:19:44.264Z,101089.81
2023-03-02T09:22:55.433Z,101087.81
2023-03-02T09:25:59.954Z,101077.13
2023-03-02T09:29:14.189Z,101094.56
2023-03-02T09:32:35.945Z,101062.50
2023-03-02T09:35:44.948Z,101059.66
2023-03-02T09:39:06.994Z,101080.84
2023-03-02T09:46:25.810Z,101080.41
2023-03-02T09:50:04.442Z,101075.91
2023-03-02T09:53:46.102Z,101068.78
2023-03-02T10:00:41.910Z,101059.34
2023-03-02T10:04:05.424Z,101059.91
2023-03-02T10:12:18.007Z,101031.19
2023-03-02T10:16:02.497Z,101048.78
2023-03-02T10:19:32.800Z,101048.59
2023-03-02T10:22:46.380Z,101050.94
2023-03-02T10:26:05.254Z,101050.50
2023-03-02T10:29:11.017Z,101047.81
2023-03-02T10:32:22.556Z,101041.66
2023-03-02T10:35:28.114Z,101042.94
2023-03-02T10:38:32.974Z,101033.41
2023-03-02T10:41:43.690Z,101042.44
2023-03-02T10:44:56.153Z,101040.88
2023-03-02T10:48:23.589Z,101031.59
2023-03-02T10:51:44.138Z,101024.16
2023-03-02T10:54:50.286Z,101030.91
2023-03-02T11:07:36.179Z,101008.06
2023-03-02T11:10:51.098Z,101001.03
2023-03-02T11:13:57.245Z,101003.16
2023-03-02T11:17:23.961Z,100997.59
2023-03-02T11:20:42.067Z,100970.22
2023-03-02T11:24:19.691Z,100997.00
2023-03-02T11:27:28.550Z,100979.34
2023-03-02T11:30:40.015Z,100978.09
2023-03-02T11:34:24.995Z,100992.63
2023-03-02T11:37:52.663Z,100980.88
2023-03-02T11:41:01.016Z,100985.88
2023-03-02T11:44:40.282Z,100972.91
2023-03-02T11:48:03.303Z,100967.72
2023-03-02T11:51:15.101Z,100972.41
2023-03-02T11:54:47.311Z,100948.13
2023-03-02T11:57:57.875Z,100963.63
2023-03-02T12:01:04.801Z,100956.25
2023-03-02T12:08:07.348Z,100950.81
2023-03-02T12:11:22.187Z,100955.91
2023-03-02T12:14:31.778Z,100944.28
2023-03-02T12:17:48.326Z,100947.75
2023-03-02T12:21:09.485Z,100940.84
2023-03-02T12:24:29.296Z,100931.19
2023-03-02T12:27:43.233Z,100935.94
2023-03-02T12:30:57.393Z,100932.97
2023-03-02T12:34:32.951Z,100933.47
2023-03-02T12:37:59.892Z,100937.41
2023-03-02T12:42:06.025Z,100922.63
2023-03-02T12:45:38.652Z,100921.13
2023-03-02T12:49:00.037Z,100910.97
2023-03-02T12:52:37.075Z,100910.59
2023-03-02T12:55:39.849Z,100908.63
2023-03-02T12:58:56.114Z,100901.06
2023-03-02T13:02:14.596Z,100906.38
2023-03-02T13:05:23.559Z,100902.13
2023-03-02T13:08:29.197Z,100890.97
2023-03-02T13:11:35.132Z,100898.53
2023-03-02T13:14:43.157Z,100885.38
2023-03-02T13:17:55.285Z,100883.25
2023-03-02T13:21:38.872Z,100876.53
2023-03-02T13:25:00.588Z,100876.88
2023-03-02T13:28:08.248Z,100875.72
2023-03-02T13:31:30.311Z,100866.03
2023-03-02T13:34:38.235Z,100862.09
2023-03-02T13:37:44.757Z,100855.53
2023-03-02T13:40:52.447Z,100862.09
2023-03-02T13:44:23.903Z,100854.88
2023-03-02T13:47:28.934Z,100832.59
2023-03-02T13:50:33.359Z,100851.59
2023-03-02T13:53:38.436Z,100842.56
2023-03-02T13:56:47.170Z,100844.53
2023-03-02T13:59:53.413Z,100829.63
2023-03-02T14:02:57.613Z,100830.28
2023-03-02T14:06:09.157Z,100832.25
2023-03-02T14:09:16.296Z,100818.81
2023-03-02T14:12:38.359Z,100824.53
2023-03-02T14:15:51.932Z,100822.41
2023-03-02T14:19:24.987Z,100817.63
2023-03-02T14:22:42.033Z,100770.28
2023-03-02T14:25:50.102Z,100786.66
2023-03-02T14:29:04.903Z,100790.94
2023-03-02T14:32:11.152Z,100796.03
2023-03-02T14:35:19.909Z,100790.59
2023-03-02T14:38:25.499Z,100796.84
2023-03-02T14:41:29.379Z,100794.69
2023-03-02T14:44:33.297Z,100794.22
2023-03-02T14:47:35.576Z,100791.94
2023-03-02T14:50:46.044Z,100795.19
2023-03-02T14:53:52.646Z,100798.78
2023-03-02T14:56:55.200Z,100787.00
2023-03-02T15:00:10.657Z,100781.09
2023-03-02T15:03:37.521Z,100795.19
2023-03-02T15:06:43.660Z,100786.03
2023-03-02T15:09:49.165Z,100790.78
2023-03-02T15:12:52.236Z,100778.47
2023-03-02T15:15:57.619Z,100780.78
2023-03-02T15:19:03.012Z,100784.06
2023-03-02T15:22:05.582Z,100789.47
2023-03-02T15:25:08.638Z,100772.41
2023-03-02T15:28:11.161Z,100792.91
2023-03-02T15:31:16.818Z,100793.09
2023-03-02T15:34:19.835Z,100789.28
2023-03-02T15:37:24.004Z,100792.41
2023-03-02T15:40:26.470Z,100795.84
2023-03-02T15:43:34.149Z,100798.78
2023-03-02T15:46:36.581Z,100796.00
2023-03-02T15:49:39.685Z,100801.56
2023-03-02T15:52:49.725Z,100795.34
2023-03-02T15:55:52.801Z,100782.22
2023-03-02T15:58:55.711Z,100797.44
2023-03-02T16:01:59.896Z,100803.66
2023-03-02T16:05:05.508Z,100801.72
2023-03-02T16:08:11.696Z,100800.22
2023-03-02T16:11:18.743Z,100796.41
2023-03-02T16:14:21.115Z,100806.53
2023-03-02T16:17:23.687Z,100809.78
2023-03-02T16:20:29.109Z,100814.75
2023-03-02T16:23:31.971Z,100813.63
2023-03-02T16:26:37.822Z,100804.03
2023-03-02T16:29:43.720Z,100815.50
2023-03-02T16:32:46.998Z,100813.84
2023-03-02T16:35:53.699Z,100822.13
2023-03-02T16:38:56.142Z,100824.25
2023-03-02T16:42:01.638Z,100806.81
2023-03-02T16:45:05.957Z,100827.94
2023-03-02T16:48:08.767Z,100832.16
2023-03-02T16:51:13.178Z,100830.63
2023-03-02T16:54:22.660Z,100836.28
2023-03-02T16:57:25.403Z,100837.75
2023-03-02T17:00:31.525Z,100850.91
2023-03-02T17:03:34.219Z,100861.63
2023-03-02T17:06:40.104Z,100851.13
2023-03-02T17:09:44.458Z,100852.72
2023-03-02T17:12:47.020Z,100860.59
2023-03-02T17:15:50.448Z,100864.34
2023-03-02T17:18:53.424Z,100870.47
2023-03-02T17:22:00.748Z,100869.94
2023-03-02T17:25:04.729Z,100868.09
2023-03-02T17:28:07.464Z,100874.97
2023-03-02T17:31:10.747Z,100871.53
2023-03-02T17:34:14.819Z,100874.28
2023-03-02T17:37:18.261Z,100868.50
2023-03-02T17:40:22.415Z,100869.00
2023-03-02T17:43:24.717Z,100869.88
2023-03-02T17:46:27.564Z,100871.41
2023-03-02T17:49:31.131Z,100874.41
2023-03-02T17:52:33.480Z,100872.47
2023-03-02T17:55:36.206Z,100874.63
2023-03-02T17:58:44.979Z,100872.56
2023-03-02T18:01:48.744Z,100872.84
2023-03-02T18:04:51.373Z,100871.91
2023-03-02T18:07:54.878Z,100874.41
2023-03-02T18:10:57.503Z,100885.09
2023-03-02T18:14:00.478Z,100870.88
2023-03-02T18:17:05.750Z,100884.06
2023-03-02T18:20:10.066Z,100880.94
2023-03-02T18:23:14.388Z,100878.34
2023-03-02T18:26:17.350Z,100873.13
2023-03-02T18:29:20.752Z,100864.63
2023-03-02T18:32:23.544Z,100880.28
2023-03-02T18:35:26.356Z,100882.88
2023-03-02T18:38:31.090Z,100881.66
2023-03-02T18:41:34.776Z,100881.50
2023-03-02T18:44:37.529Z,100874.94
2023-03-02T18:47:46.291Z,100880.84
2023-03-02T18:50:49.319Z,100879.47
2023-03-02T18:53:53.815Z,100884.69
2023-03-02T18:56:56.481Z,100884.44
2023-03-02T18:59:58.670Z,100874.00
2023-03-02T19:03:02.525Z,100875.66
2023-03-02T19:06:07.508Z,100875.50
2023-03-02T19:09:11.347Z,100878.78
2023-03-02T19:12:14.097Z,100880.59
2023-03-02T19:15:16.673Z,100887.56
2023-03-02T19:18:21.090Z,100883.50
2023-03-02T19:21:24.144Z,100883.75
2023-03-02T19:24:26.651Z,100883.34
2023-03-02T19:27:30.412Z,100882.34
2023-03-02T19:30:37.001Z,100888.41
2023-03-02T19:33:42.132Z,100879.75
2023-03-02T19:36:45.082Z,100871.25
2023-03-02T19:39:47.791Z,100886.06
2023-03-02T19:42:53.250Z,100891.84
2023-03-02T19:45:56.801Z,100890.59
2023-03-02T19:49:00.577Z,100890.47
2023-03-02T19:52:04.659Z,100879.75
2023-03-02T19:55:10.050Z,100898.41
2023-03-02T19:58:17.883Z,100885.63
2023-03-02T20:01:24.926Z,100892.25
2023-03-02T20:04:28.536Z,100890.72
2023-03-02T20:07:31.452Z,100894.84
2023-03-02T20:10:37.707Z,100890.72
2023-03-02T20:13:40.484Z,100898.66
2023-03-02T20:16:43.385Z,100897.25
2023-03-02T20:19:49.698Z,100897.38
2023-03-02T20:22:52.573Z,100907.06
2023-03-02T20:25:55.783Z,100908.03
2023-03-02T20:28:59.794Z,100915.31
2023-03-02T20:32:06.241Z,100923.50
2023-03-02T20:35:10.639Z,100913.94
2023-03-02T20:38:20.744Z,100918.53
2023-03-02T20:41:23.640Z,100913.31
2023-03-02T20:44:27.022Z,100917.47
2023-03-02T20:47:30.305Z,100914.38
2023-03-02T20:50:35.218Z,100911.78
2023-03-02T20:53:37.671Z,100917.34
2023-03-02T20:56:40.456Z,100906.44
2023-03-02T20:59:46.148Z,100904.63
2023-03-02T21:02:49.985Z,100896.81
2023-03-02T21:05:52.827Z,100901.13
2023-03-02T21:08:57.046Z,100897.44
2023-03-02T21:11:59.803Z,100891.84
2023-03-02T21:15:03.913Z,100893.88
2023-03-02T21:18:06.220Z,100886.53
2023-03-02T21:21:08.783Z,100880.88
2023-03-02T21:24:14.714Z,100880.88
2023-03-02T21:27:17.335Z,100875.16
2023-03-02T21:30:31.831Z,100877.97
2023-03-02T21:33:34.537Z,100879.72
2023-03-02T21:36:36.895Z,100879.25
2023-03-02T21:39:39.201Z,100881.75
2023-03-02T21:42:43.615Z,100879.84
2023-03-02T21:45:46.901Z,100884.34
2023-03-02T21:48:50.719Z,100881.22
2023-03-02T21:51:52.718Z,100881.84
2023-03-02T21:54:55.103Z,100883.56
2023-03-02T21:57:58.558Z,100879.06
2023-03-02T22:01:03.941Z,100878.81
2023-03-02T22:04:06.563Z,100873.66
2023-03-02T22:07:09.115Z,100868.59
2023-03-02T22:10:33.680Z,100881.53
2023-03-02T22:13:37.570Z,100875.44
2023-03-02T22:16:42.484Z,100869.16
2023-03-02T22:19:45.083Z,100877.47
2023-03-02T22:22:49.967Z,100875.97
2023-03-02T22:26:00.936Z,100868.59
2023-03-02T22:29:13.477Z,100871.06
2023-03-02T22:32:24.779Z,100870.72
2023-03-02T22:35:28.103Z,100868.25
2023-03-02T22:38:34.484Z,100869.25
2023-03-02T22:41:36.740Z,100871.97
2023-03-02T22:44:39.612Z,100862.56
2023-03-02T22:47:43.747Z,100868.03
2023-03-02T22:50:49.367Z,100859.38
2023-03-02T22:53:53.669Z,100858.78
2023-03-02T22:56:57.929Z,100861.22
2023-03-02T23:00:14.343Z,100860.03
2023-03-02T23:03:28.169Z,100863.03
2023-03-02T23:06:38.320Z,100861.25
2023-03-02T23:09:40.938Z,100842.59
2023-03-02T23:12:43.836Z,100856.09
2023-03-02T23:15:47.740Z,100853.16
2023-03-02T23:18:51.136Z,100850.13
2023-03-02T23:21:53.773Z,100852.84
2023-03-02T23:24:56.727Z,100845.88
2023-03-02T23:27:59.186Z,100852.78
2023-03-02T23:31:01.534Z,100850.59
2023-03-02T23:34:04.340Z,100842.44
2023-03-02T23:37:06.659Z,100840.41
2023-03-02T23:40:10.183Z,100837.97
2023-03-02T23:43:12.498Z,100831.13
2023-03-02T23:46:15.517Z,100839.34
2023-03-02T23:49:18.004Z,100832.38
2023-03-02T23:52:20.550Z,100833.56
2023-03-02T23:55:24.228Z,100841.00
2023-03-02T23:58:26.677Z,100838.97
